sensor_id;sensor_type;location;lat;lon;timestamp;pressure;altitude;pressure_sealevel;temperature;humidity
61026;BME280;46911;32.650;-16.902;2023-04-20T00:00:34;101449.63;;;17.36;61.74
61026;BME280;46911;32.650;-16.902;2023-04-20T00:02:35;101443.63;;;17.33;61.73
61026;BME280;46911;32.650;-16.902;2023-04-20T00:04:36;101459.91;;;17.43;62.01
61026;BME280;46911;32.650;-16.902;2023-04-20T00:06:39;101436.44;;;17.33;62.00
61026;BME280;46911;32.650;-16.902;2023-04-20T00:08:41;101459.16;;;17.40;62.04
61026;BME280;46911;32.650;-16.902;2023-04-20T00:10:44;101454.53;;;17.43;62.41
61026;BME280;46911;32.650;-16.902;2023-04-20T00:12:49;101449.69;;;17.46;63.00
61026;BME280;46911;32.650;-16.902;2023-04-20T00:14:54;101450.03;;;17.53;63.34
61026;BME280;46911;32.650;-16.902;2023-04-20T00:16:57;101449.03;;;17.54;63.24
61026;BME280;46911;32.650;-16.902;2023-04-20T00:19:00;101429.84;;;17.47;63.42
61026;BME280;46911;32.650;-16.902;2023-04-20T00:21:04;101445.09;;;17.58;63.34
61026;BME280;46911;32.650;-16.902;2023-04-20T00:23:05;101441.28;;;17.61;63.45
61026;BME280;46911;32.650;-16.902;2023-04-20T00:25:09;101438.91;;;17.67;63.31
61026;BME280;46911;32.650;-16.902;2023-04-20T00:27:10;101438.19;;;17.65;63.49
61026;BME280;46911;32.650;-16.902;2023-04-20T00:29:11;101436.19;;;17.67;63.67
61026;BME280;46911;32.650;-16.902;2023-04-20T00:31:12;101423.97;;;17.63;63.58
61026;BME280;46911;32.650;-16.902;2023-04-20T00:33:16;101418.19;;;17.68;62.60
61026;BME280;46911;32.650;-16.902;2023-04-20T00:35:20;101409.28;;;17.77;62.30
61026;BME280;46911;32.650;-16.902;2023-04-20T00:37:25;101431.31;;;17.82;62.38
61026;BME280;46911;32.650;-16.902;2023-04-20T00:39:31;101421.44;;;17.71;62.93
61026;BME280;46911;32.650;-16.902;2023-04-20T00:41:41;101395.56;;;17.59;64.40
61026;BME280;46911;32.650;-16.902;2023-04-20T00:43:52;101421.44;;;17.71;64.15
61026;BME280;46911;32.650;-16.902;2023-04-20T00:45:53;101418.91;;;17.70;63.86
61026;BME280;46911;32.650;-16.902;2023-04-20T00:47:57;101414.38;;;17.70;63.11
61026;BME280;46911;32.650;-16.902;2023-04-20T00:50:04;101397.72;;;17.65;62.56
61026;BME280;46911;32.650;-16.902;2023-04-20T00:52:05;101406.22;;;17.61;62.51
61026;BME280;46911;32.650;-16.902;2023-04-20T00:54:08;101406.81;;;17.64;63.09
61026;BME280;46911;32.650;-16.902;2023-04-20T00:56:13;101417.06;;;17.70;62.84
61026;BME280;46911;32.650;-16.902;2023-04-20T00:58:15;101396.53;;;17.58;63.36
61026;BME280;46911;32.650;-16.902;2023-04-20T01:00:16;101414.63;;;17.67;65.06
61026;BME280;46911;32.650;-16.902;2023-04-20T01:02:20;101414.56;;;17.57;65.74
61026;BME280;46911;32.650;-16.902;2023-04-20T01:04:21;101411.69;;;17.49;67.22
61026;BME280;46911;32.650;-16.902;2023-04-20T01:06:27;101405.84;;;17.44;67.72
61026;BME280;46911;32.650;-16.902;2023-04-20T01:08:32;101407.66;;;17.44;68.31
61026;BME280;46911;32.650;-16.902;2023-04-20T01:10:37;101393.66;;;17.29;68.69
61026;BME280;46911;32.650;-16.902;2023-04-20T01:12:43;101406.75;;;17.33;68.92
61026;BME280;46911;32.650;-16.902;2023-04-20T01:14:44;101385.66;;;17.17;69.77
61026;BME280;46911;32.650;-16.902;2023-04-20T01:16:45;101373.56;;;17.12;69.07
61026;BME280;46911;32.650;-16.902;2023-04-20T01:18:51;101396.50;;;17.27;68.40
61026;BME280;46911;32.650;-16.902;2023-04-20T01:20:54;101381.66;;;17.12;68.75
61026;BME280;46911;32.650;-16.902;2023-04-20T01:22:55;101372.53;;;17.13;69.37
61026;BME280;46911;32.650;-16.902;2023-04-20T01:24:56;101392.22;;;17.24;69.87
61026;BME280;46911;32.650;-16.902;2023-04-20T01:26:59;101386.97;;;17.23;70.03
61026;BME280;46911;32.650;-16.902;2023-04-20T01:29:01;101371.97;;;17.09;70.21
61026;BME280;46911;32.650;-16.902;2023-04-20T01:31:06;101366.69;;;17.07;70.19
61026;BME280;46911;32.650;-16.902;2023-04-20T01:33:07;101367.94;;;17.03;69.84
61026;BME280;46911;32.650;-16.902;2023-04-20T01:35:13;101376.69;;;17.17;69.90
61026;BME280;46911;32.650;-16.902;2023-04-20T01:37:14;101364.41;;;17.03;69.58
61026;BME280;46911;32.650;-16.902;2023-04-20T01:39:17;101380.63;;;17.13;69.91
61026;BME280;46911;32.650;-16.902;2023-04-20T01:41:23;101376.25;;;17.12;69.73
61026;BME280;46911;32.650;-16.902;2023-04-20T01:43:26;101371.09;;;17.09;69.92
61026;BME280;46911;32.650;-16.902;2023-04-20T01:45:27;101366.44;;;17.11;70.32
61026;BME280;46911;32.650;-16.902;2023-04-20T01:47:34;101363.63;;;17.12;70.65
61026;BME280;46911;32.650;-16.902;2023-04-20T01:49:37;101352.31;;;16.97;71.51
61026;BME280;46911;32.650;-16.902;2023-04-20T01:51:41;101342.00;;;17.02;71.37
61026;BME280;46911;32.650;-16.902;2023-04-20T01:53:44;101357.16;;;17.03;71.65
61026;BME280;46911;32.650;-16.902;2023-04-20T01:55:46;101351.78;;;17.03;71.65
61026;BME280;46911;32.650;-16.902;2023-04-20T01:57:47;101355.19;;;17.05;71.54
61026;BME280;46911;32.650;-16.902;2023-04-20T01:59:54;101362.03;;;17.10;71.38
61026;BME280;46911;32.650;-16.902;2023-04-20T02:01:55;101355.91;;;17.07;71.17
61026;BME280;46911;32.650;-16.902;2023-04-20T02:03:59;101352.78;;;17.02;71.29
61026;BME280;46911;32.650;-16.902;2023-04-20T02:06:03;101339.22;;;16.93;71.53
61026;BME280;46911;32.650;-16.902;2023-04-20T02:08:06;101340.41;;;17.00;71.49
61026;BME280;46911;32.650;-16.902;2023-04-20T02:10:10;101343.13;;;16.88;71.24
61026;BME280;46911;32.650;-16.902;2023-04-20T02:12:11;101336.44;;;16.83;71.25
61026;BME280;46911;32.650;-16.902;2023-04-20T02:14:16;101352.44;;;16.96;72.01
61026;BME280;46911;32.650;-16.902;2023-04-20T02:16:21;101330.53;;;16.89;72.31
61026;BME280;46911;32.650;-16.902;2023-04-20T02:18:25;101322.69;;;16.86;72.64
61026;BME280;46911;32.650;-16.902;2023-04-20T02:20:31;101320.72;;;16.88;73.03
61026;BME280;46911;32.650;-16.902;2023-04-20T02:22:32;101330.75;;;16.97;72.96
61026;BME280;46911;32.650;-16.902;2023-04-20T02:24:35;101331.75;;;16.85;73.21
61026;BME280;46911;32.650;-16.902;2023-04-20T02:26:36;101333.47;;;16.86;73.17
61026;BME280;46911;32.650;-16.902;2023-04-20T02:28:39;101332.75;;;16.84;73.42
61026;BME280;46911;32.650;-16.902;2023-04-20T02:30:40;101330.06;;;16.84;72.77
61026;BME280;46911;32.650;-16.902;2023-04-20T02:32:41;101327.03;;;16.77;73.17
61026;BME280;46911;32.650;-16.902;2023-04-20T02:34:45;101305.72;;;16.53;73.35
61026;BME280;46911;32.650;-16.902;2023-04-20T02:36:46;101324.78;;;16.61;73.65
61026;BME280;46911;32.650;-16.902;2023-04-20T02:38:48;101322.41;;;16.68;73.78
61026;BME280;46911;32.650;-16.902;2023-04-20T02:40:51;101320.69;;;16.67;73.45
61026;BME280;46911;32.650;-16.902;2023-04-20T02:42:53;101303.03;;;16.53;73.69
61026;BME280;46911;32.650;-16.902;2023-04-20T02:44:57;101314.56;;;16.65;73.97
61026;BME280;46911;32.650;-16.902;2023-04-20T02:46:58;101326.09;;;16.67;74.23
61026;BME280;46911;32.650;-16.902;2023-04-20T02:49:02;101325.34;;;16.65;74.42
61026;BME280;46911;32.650;-16.902;2023-04-20T02:51:12;101323.59;;;16.75;74.97
61026;BME280;46911;32.650;-16.902;2023-04-20T02:53:17;101315.66;;;16.73;75.14
61026;BME280;46911;32.650;-16.902;2023-04-20T02:55:23;101308.06;;;16.67;75.05
61026;BME280;46911;32.650;-16.902;2023-04-20T02:57:29;101302.63;;;16.57;75.38
61026;BME280;46911;32.650;-16.902;2023-04-20T02:59:31;101315.19;;;16.68;75.30
61026;BME280;46911;32.650;-16.902;2023-04-20T03:01:39;101300.06;;;16.56;75.75
61026;BME280;46911;32.650;-16.902;2023-04-20T03:03:52;101298.81;;;16.60;75.99
61026;BME280;46911;32.650;-16.902;2023-04-20T03:05:56;101303.16;;;16.72;76.11
61026;BME280;46911;32.650;-16.902;2023-04-20T03:08:02;101298.31;;;16.66;76.13
61026;BME280;46911;32.650;-16.902;2023-04-20T03:10:06;101291.56;;;16.61;76.33
61026;BME280;46911;32.650;-16.902;2023-04-20T03:12:39;101262.72;;;16.51;76.63
61026;BME280;46911;32.650;-16.902;2023-04-20T03:14:54;101290.34;;;16.65;76.97
61026;BME280;46911;32.650;-16.902;2023-04-20T03:17:09;101281.81;;;16.60;76.94
61026;BME280;46911;32.650;-16.902;2023-04-20T03:19:10;101287.91;;;16.62;77.00
61026;BME280;46911;32.650;-16.902;2023-04-20T03:21:14;101302.31;;;16.72;77.10
61026;BME280;46911;32.650;-16.902;2023-04-20T03:23:18;101278.84;;;16.63;77.25
61026;BME280;46911;32.650;-16.902;2023-04-20T03:25:19;101296.38;;;16.78;77.41
61026;BME280;46911;32.650;-16.902;2023-04-20T03:27:26;101280.75;;;16.72;77.57
61026;BME280;46911;32.650;-16.902;2023-04-20T03:29:40;101282.59;;;16.71;77.52
61026;BME280;46911;32.650;-16.902;2023-04-20T03:31:43;101279.19;;;16.69;77.74
61026;BME280;46911;32.650;-16.902;2023-04-20T03:33:46;101291.13;;;16.77;77.89
61026;BME280;46911;32.650;-16.902;2023-04-20T03:35:50;101294.44;;;16.80;77.92
61026;BME280;46911;32.650;-16.902;2023-04-20T03:37:51;101281.88;;;16.69;78.05
61026;BME280;46911;32.650;-16.902;2023-04-20T03:39:55;101275.97;;;16.76;78.07
61026;BME280;46911;32.650;-16.902;2023-04-20T03:41:58;101295.59;;;16.87;78.11
61026;BME280;46911;32.650;-16.902;2023-04-20T03:44:05;101282.41;;;16.84;78.28
61026;BME280;46911;32.650;-16.902;2023-04-20T03:46:06;101289.88;;;16.92;78.32
61026;BME280;46911;32.650;-16.902;2023-04-20T03:48:10;101273.94;;;16.89;78.44
61026;BME280;46911;32.650;-16.902;2023-04-20T03:50:11;101283.22;;;16.96;78.55
61026;BME280;46911;32.650;-16.902;2023-04-20T03:52:14;101269.78;;;16.85;78.49
61026;BME280;46911;32.650;-16.902;2023-04-20T03:54:22;101280.19;;;16.89;78.46
61026;BME280;46911;32.650;-16.902;2023-04-20T03:56:26;101293.03;;;16.97;78.29
61026;BME280;46911;32.650;-16.902;2023-04-20T03:58:36;101265.97;;;16.87;78.54
61026;BME280;46911;32.650;-16.902;2023-04-20T04:01:01;101288.09;;;17.02;78.58
61026;BME280;46911;32.650;-16.902;2023-04-20T04:03:06;101283.69;;;17.01;78.43
61026;BME280;46911;32.650;-16.902;2023-04-20T04:05:07;101292.47;;;17.03;78.72
61026;BME280;46911;32.650;-16.902;2023-04-20T04:07:08;101281.84;;;17.02;78.51
61026;BME280;46911;32.650;-16.902;2023-04-20T04:09:13;101242.41;;;16.80;78.54
61026;BME280;46911;32.650;-16.902;2023-04-20T04:11:14;101260.41;;;17.00;78.35
61026;BME280;46911;32.650;-16.902;2023-04-20T04:13:15;101278.34;;;17.11;78.33
61026;BME280;46911;32.650;-16.902;2023-04-20T04:15:18;101283.13;;;17.07;78.38
61026;BME280;46911;32.650;-16.902;2023-04-20T04:17:32;101275.19;;;17.06;78.52
61026;BME280;46911;32.650;-16.902;2023-04-20T04:19:33;101262.41;;;16.98;78.86
61026;BME280;46911;32.650;-16.902;2023-04-20T04:21:37;101269.41;;;17.11;79.05
61026;BME280;46911;32.650;-16.902;2023-04-20T04:23:39;101251.47;;;17.00;79.56
61026;BME280;46911;32.650;-16.902;2023-04-20T04:25:50;101256.41;;;16.95;79.54
61026;BME280;46911;32.650;-16.902;2023-04-20T04:27:56;101282.56;;;17.04;79.71
61026;BME280;46911;32.650;-16.902;2023-04-20T04:29:58;101260.94;;;16.94;80.06
61026;BME280;46911;32.650;-16.902;2023-04-20T04:31:59;101261.19;;;16.91;80.61
61026;BME280;46911;32.650;-16.902;2023-04-20T04:34:03;101277.84;;;16.96;81.18
61026;BME280;46911;32.650;-16.902;2023-04-20T04:36:11;101286.53;;;17.00;81.19
61026;BME280;46911;32.650;-16.902;2023-04-20T04:38:20;101276.25;;;16.94;81.51
61026;BME280;46911;32.650;-16.902;2023-04-20T04:40:23;101259.28;;;16.82;81.71
61026;BME280;46911;32.650;-16.902;2023-04-20T04:42:28;101276.41;;;16.92;82.12
61026;BME280;46911;32.650;-16.902;2023-04-20T04:44:36;101275.41;;;16.93;82.42
61026;BME280;46911;32.650;-16.902;2023-04-20T04:46:42;101270.50;;;16.87;82.84
61026;BME280;46911;32.650;-16.902;2023-04-20T04:48:46;101272.47;;;16.85;82.97
61026;BME280;46911;32.650;-16.902;2023-04-20T04:50:47;101270.19;;;16.80;83.37
61026;BME280;46911;32.650;-16.902;2023-04-20T04:52:48;101274.13;;;16.76;83.38
61026;BME280;46911;32.650;-16.902;2023-04-20T04:54:49;101273.53;;;16.72;83.37
61026;BME280;46911;32.650;-16.902;2023-04-20T04:56:50;101254.00;;;16.59;83.35
61026;BME280;46911;32.650;-16.902;2023-04-20T04:58:53;101272.09;;;16.68;83.48
61026;BME280;46911;32.650;-16.902;2023-04-20T05:00:54;101249.72;;;16.56;83.48
61026;BME280;46911;32.650;-16.902;2023-04-20T05:02:55;101258.81;;;16.55;83.46
61026;BME280;46911;32.650;-16.902;2023-04-20T05:04:56;101274.06;;;16.66;83.41
61026;BME280;46911;32.650;-16.902;2023-04-20T05:06:57;101266.00;;;16.66;83.38
61026;BME280;46911;32.650;-16.902;2023-04-20T05:09:00;101248.44;;;16.51;83.24
61026;BME280;46911;32.650;-16.902;2023-04-20T05:11:06;101264.78;;;16.59;83.37
61026;BME280;46911;32.650;-16.902;2023-04-20T05:13:07;101265.75;;;16.58;83.37
61026;BME280;46911;32.650;-16.902;2023-04-20T05:15:09;101260.66;;;16.55;83.52
61026;BME280;46911;32.650;-16.902;2023-04-20T05:17:12;101258.81;;;16.55;83.51
61026;BME280;46911;32.650;-16.902;2023-04-20T05:19:13;101238.44;;;16.42;83.33
61026;BME280;46911;32.650;-16.902;2023-04-20T05:21:19;101259.19;;;16.51;83.40
61026;BME280;46911;32.650;-16.902;2023-04-20T05:23:24;101244.09;;;16.38;83.20
61026;BME280;46911;32.650;-16.902;2023-04-20T05:25:25;101238.50;;;16.30;83.48
61026;BME280;46911;32.650;-16.902;2023-04-20T05:27:26;101235.84;;;16.19;83.43
61026;BME280;46911;32.650;-16.902;2023-04-20T05:29:32;101259.44;;;16.27;83.81
61026;BME280;46911;32.650;-16.902;2023-04-20T05:31:35;101253.22;;;16.15;84.04
61026;BME280;46911;32.650;-16.902;2023-04-20T05:33:36;101254.34;;;16.12;84.31
61026;BME280;46911;32.650;-16.902;2023-04-20T05:35:42;101244.59;;;16.00;84.46
61026;BME280;46911;32.650;-16.902;2023-04-20T05:37:47;101228.72;;;15.85;84.74
61026;BME280;46911;32.650;-16.902;2023-04-20T05:39:58;101231.81;;;15.81;84.81
61026;BME280;46911;32.650;-16.902;2023-04-20T05:42:03;101228.75;;;15.74;84.66
61026;BME280;46911;32.650;-16.902;2023-04-20T05:44:06;101247.31;;;15.77;84.68
61026;BME280;46911;32.650;-16.902;2023-04-20T05:46:07;101242.19;;;15.74;85.00
61026;BME280;46911;32.650;-16.902;2023-04-20T05:48:08;101231.56;;;15.61;84.97
61026;BME280;46911;32.650;-16.902;2023-04-20T05:50:10;101246.34;;;15.67;85.07
61026;BME280;46911;32.650;-16.902;2023-04-20T05:52:13;101244.53;;;15.56;85.14
61026;BME280;46911;32.650;-16.902;2023-04-20T05:54:19;101238.78;;;15.49;85.16
61026;BME280;46911;32.650;-16.902;2023-04-20T05:56:22;101251.59;;;15.46;85.24
61026;BME280;46911;32.650;-16.902;2023-04-20T05:58:23;101244.28;;;15.36;85.31
61026;BME280;46911;32.650;-16.902;2023-04-20T06:00:26;101245.50;;;15.32;84.83
61026;BME280;46911;32.650;-16.902;2023-04-20T06:02:27;101220.84;;;15.16;84.73
61026;BME280;46911;32.650;-16.902;2023-04-20T06:04:30;101233.53;;;15.14;84.32
61026;BME280;46911;32.650;-16.902;2023-04-20T06:06:31;101248.22;;;15.21;84.39
61026;BME280;46911;32.650;-16.902;2023-04-20T06:08:32;101227.78;;;15.07;84.19
61026;BME280;46911;32.650;-16.902;2023-04-20T06:10:36;101232.78;;;15.00;84.12
61026;BME280;46911;32.650;-16.902;2023-04-20T06:12:37;101235.38;;;15.02;83.60
61026;BME280;46911;32.650;-16.902;2023-04-20T06:14:44;101248.31;;;15.08;83.18
61026;BME280;46911;32.650;-16.902;2023-04-20T06:16:47;101246.00;;;15.03;83.01
61026;BME280;46911;32.650;-16.902;2023-04-20T06:18:48;101229.13;;;15.01;82.53
61026;BME280;46911;32.650;-16.902;2023-04-20T06:20:49;101221.56;;;14.95;82.40
61026;BME280;46911;32.650;-16.902;2023-04-20T06:22:53;101230.97;;;15.01;81.99
61026;BME280;46911;32.650;-16.902;2023-04-20T06:24:54;101214.34;;;14.96;81.70
61026;BME280;46911;32.650;-16.902;2023-04-20T06:27:00;101225.59;;;15.01;81.09
61026;BME280;46911;32.650;-16.902;2023-04-20T06:29:04;101224.63;;;15.02;80.78
61026;BME280;46911;32.650;-16.902;2023-04-20T06:31:07;101222.03;;;15.00;80.25
61026;BME280;46911;32.650;-16.902;2023-04-20T06:33:11;101241.47;;;15.04;79.94
61026;BME280;46911;32.650;-16.902;2023-04-20T06:35:19;101218.25;;;14.92;78.98
61026;BME280;46911;32.650;-16.902;2023-04-20T06:37:20;101227.16;;;14.92;78.86
61026;BME280;46911;32.650;-16.902;2023-04-20T06:39:21;101238.06;;;15.02;78.52
61026;BME280;46911;32.650;-16.902;2023-04-20T06:41:21;101232.91;;;14.99;77.98
61026;BME280;46911;32.650;-16.902;2023-04-20T06:43:28;101222.66;;;14.93;77.79
61026;BME280;46911;32.650;-16.902;2023-04-20T06:45:29;101234.50;;;15.01;77.78
61026;BME280;46911;32.650;-16.902;2023-04-20T06:47:33;101239.88;;;15.01;77.22
61026;BME280;46911;32.650;-16.902;2023-04-20T06:49:34;101223.75;;;14.90;77.20
61026;BME280;46911;32.650;-16.902;2023-04-20T06:51:39;101239.75;;;15.03;76.31
61026;BME280;46911;32.650;-16.902;2023-04-20T06:53:40;101233.53;;;15.02;76.17
61026;BME280;46911;32.650;-16.902;2023-04-20T06:55:41;101239.75;;;15.03;76.25
61026;BME280;46911;32.650;-16.902;2023-04-20T06:57:45;101216.19;;;14.95;75.63
61026;BME280;46911;32.650;-16.902;2023-04-20T06:59:46;101229.38;;;15.10;75.04
61026;BME280;46911;32.650;-16.902;2023-04-20T07:01:46;101228.16;;;15.14;75.03
61026;BME280;46911;32.650;-16.902;2023-04-20T07:03:47;101224.28;;;15.18;74.82
61026;BME280;46911;32.650;-16.902;2023-04-20T07:05:51;101228.66;;;15.19;74.98
61026;BME280;46911;32.650;-16.902;2023-04-20T07:07:56;101213.63;;;15.16;74.87
61026;BME280;46911;32.650;-16.902;2023-04-20T07:10:02;101214.72;;;15.25;74.62
61026;BME280;46911;32.650;-16.902;2023-04-20T07:12:03;101217.03;;;15.30;74.20
61026;BME280;46911;32.650;-16.902;2023-04-20T07:14:06;101235.25;;;15.37;73.89
61026;BME280;46911;32.650;-16.902;2023-04-20T07:16:07;101215.81;;;15.34;73.61
61026;BME280;46911;32.650;-16.902;2023-04-20T07:18:10;101231.06;;;15.56;72.94
61026;BME280;46911;32.650;-16.902;2023-04-20T07:20:20;101219.22;;;15.47;72.36
61026;BME280;46911;32.650;-16.902;2023-04-20T07:22:24;101234.38;;;15.60;72.63
61026;BME280;46911;32.650;-16.902;2023-04-20T07:24:25;101218.81;;;15.63;72.25
61026;BME280;46911;32.650;-16.902;2023-04-20T07:26:26;101219.09;;;15.71;71.06
61026;BME280;46911;32.650;-16.902;2023-04-20T07:28:29;101227.63;;;15.88;71.00
61026;BME280;46911;32.650;-16.902;2023-04-20T07:30:30;101228.81;;;15.95;70.78
61026;BME280;46911;32.650;-16.902;2023-04-20T07:32:34;101223.06;;;16.00;70.13
61026;BME280;46911;32.650;-16.902;2023-04-20T07:34:36;101222.16;;;16.11;69.33
61026;BME280;46911;32.650;-16.902;2023-04-20T07:36:41;101218.09;;;16.16;68.68
61026;BME280;46911;32.650;-16.902;2023-04-20T07:38:45;101223.94;;;16.33;68.29
61026;BME280;46911;32.650;-16.902;2023-04-20T07:40:48;101224.69;;;16.45;67.94
61026;BME280;46911;32.650;-16.902;2023-04-20T07:42:49;101213.69;;;16.48;67.39
61026;BME280;46911;32.650;-16.902;2023-04-20T07:44:50;101237.34;;;16.65;67.63
61026;BME280;46911;32.650;-16.902;2023-04-20T07:46:51;101216.16;;;16.61;67.27
61026;BME280;46911;32.650;-16.902;2023-04-20T07:48:54;101225.03;;;16.72;66.94
61026;BME280;46911;32.650;-16.902;2023-04-20T07:50:55;101250.81;;;16.86;66.93
61026;BME280;46911;32.650;-16.902;2023-04-20T07:52:58;101224.78;;;16.76;66.89
61026;BME280;46911;32.650;-16.902;2023-04-20T07:55:04;101250.88;;;16.96;66.91
61026;BME280;46911;32.650;-16.902;2023-04-20T07:57:07;101245.97;;;17.01;67.14
61026;BME280;46911;32.650;-16.902;2023-04-20T07:59:11;101250.22;;;17.04;67.10
61026;BME280;46911;32.650;-16.902;2023-04-20T08:01:14;101251.22;;;17.03;67.08
61026;BME280;46911;32.650;-16.902;2023-04-20T08:03:17;101254.22;;;17.10;67.29
61026;BME280;46911;32.650;-16.902;2023-04-20T08:05:18;101248.84;;;17.10;67.29
61026;BME280;46911;32.650;-16.902;2023-04-20T08:07:19;101249.00;;;17.18;67.49
61026;BME280;46911;32.650;-16.902;2023-04-20T08:09:22;101234.38;;;17.11;67.45
61026;BME280;46911;32.650;-16.902;2023-04-20T08:11:27;101248.66;;;17.32;67.47
61026;BME280;46911;32.650;-16.902;2023-04-20T08:13:30;101244.97;;;17.33;67.66
61026;BME280;46911;32.650;-16.902;2023-04-20T08:15:34;101234.56;;;17.29;67.52
61026;BME280;46911;32.650;-16.902;2023-04-20T08:17:39;101235.91;;;17.34;67.65
61026;BME280;46911;32.650;-16.902;2023-04-20T08:19:43;101246.56;;;17.46;67.60
61026;BME280;46911;32.650;-16.902;2023-04-20T08:21:46;101250.69;;;17.50;67.84
61026;BME280;46911;32.650;-16.902;2023-04-20T08:23:51;101256.69;;;17.53;67.83
61026;BME280;46911;32.650;-16.902;2023-04-20T08:25:55;101252.88;;;17.56;67.71
61026;BME280;46911;32.650;-16.902;2023-04-20T08:27:57;101246.06;;;17.62;68.05
61026;BME280;46911;32.650;-16.902;2023-04-20T08:30:03;101257.91;;;17.80;68.23
61026;BME280;46911;32.650;-16.902;2023-04-20T08:32:07;101256.91;;;17.91;68.04
61026;BME280;46911;32.650;-16.902;2023-04-20T08:34:13;101257.91;;;17.90;68.20
61026;BME280;46911;32.650;-16.902;2023-04-20T08:36:16;101265.94;;;18.01;68.41
61026;BME280;46911;32.650;-16.902;2023-04-20T08:38:20;101248.56;;;17.94;69.01
61026;BME280;46911;32.650;-16.902;2023-04-20T08:40:23;101252.84;;;17.97;69.43
61026;BME280;46911;32.650;-16.902;2023-04-20T08:42:27;101268.50;;;18.13;69.44
61026;BME280;46911;32.650;-16.902;2023-04-20T08:44:33;101260.25;;;18.04;69.67
61026;BME280;46911;32.650;-16.902;2023-04-20T08:46:37;101246.31;;;17.99;69.48
61026;BME280;46911;32.650;-16.902;2023-04-20T08:48:40;101267.94;;;18.19;69.00
61026;BME280;46911;32.650;-16.902;2023-04-20T08:50:45;101267.50;;;18.14;69.18
61026;BME280;46911;32.650;-16.902;2023-04-20T08:52:47;101248.59;;;18.04;69.09
61026;BME280;46911;32.650;-16.902;2023-04-20T08:54:48;101258.56;;;18.13;69.61
61026;BME280;46911;32.650;-16.902;2023-04-20T08:56:52;101247.59;;;18.05;70.08
61026;BME280;46911;32.650;-16.902;2023-04-20T08:58:56;101258.28;;;18.16;68.60
61026;BME280;46911;32.650;-16.902;2023-04-20T09:00:57;101252.72;;;18.18;68.14
61026;BME280;46911;32.650;-16.902;2023-04-20T09:03:02;101262.41;;;18.40;66.28
61026;BME280;46911;32.650;-16.902;2023-04-20T09:05:04;101267.81;;;18.50;64.26
61026;BME280;46911;32.650;-16.902;2023-04-20T09:07:05;101259.66;;;18.79;62.41
61026;BME280;46911;32.650;-16.902;2023-04-20T09:09:09;101257.81;;;18.99;63.10
61026;BME280;46911;32.650;-16.902;2023-04-20T09:11:27;101248.13;;;19.34;62.95
61026;BME280;46911;32.650;-16.902;2023-04-20T09:13:29;101263.78;;;19.96;62.61
61026;BME280;46911;32.650;-16.902;2023-04-20T09:15:30;101259.41;;;20.31;61.64
61026;BME280;46911;32.650;-16.902;2023-04-20T09:17:34;101254.28;;;20.46;60.75
61026;BME280;46911;32.650;-16.902;2023-04-20T09:19:35;101242.25;;;20.85;60.11
61026;BME280;46911;32.650;-16.902;2023-04-20T09:21:50;101220.59;;;20.93;58.54
61026;BME280;46911;32.650;-16.902;2023-04-20T09:24:03;101246.88;;;21.27;58.46
61026;BME280;46911;32.650;-16.902;2023-04-20T09:26:16;101228.56;;;20.95;58.61
61026;BME280;46911;32.650;-16.902;2023-04-20T09:28:22;101254.16;;;21.18;58.21
61026;BME280;46911;32.650;-16.902;2023-04-20T09:30:23;101253.19;;;20.57;60.46
61026;BME280;46911;32.650;-16.902;2023-04-20T09:32:24;101257.44;;;20.41;61.28
61026;BME280;46911;32.650;-16.902;2023-04-20T09:34:28;101253.13;;;20.13;62.03
61026;BME280;46911;32.650;-16.902;2023-04-20T09:36:51;101264.63;;;19.69;63.58
61026;BME280;46911;32.650;-16.902;2023-04-20T09:39:07;101275.47;;;19.97;63.89
61026;BME280;46911;32.650;-16.902;2023-04-20T09:41:13;101249.69;;;20.65;62.62
61026;BME280;46911;32.650;-16.902;2023-04-20T09:43:19;101242.09;;;21.47;59.51
61026;BME280;46911;32.650;-16.902;2023-04-20T09:45:24;101247.03;;;22.11;57.42
61026;BME280;46911;32.650;-16.902;2023-04-20T09:47:27;101251.16;;;22.65;55.18
61026;BME280;46911;32.650;-16.902;2023-04-20T09:49:34;101259.97;;;23.00;53.11
61026;BME280;46911;32.650;-16.902;2023-04-20T09:51:37;101260.47;;;22.95;54.22
61026;BME280;46911;32.650;-16.902;2023-04-20T09:53:39;101259.50;;;22.80;54.32
61026;BME280;46911;32.650;-16.902;2023-04-20T09:55:46;101258.16;;;22.51;54.65
61026;BME280;46911;32.650;-16.902;2023-04-20T09:57:51;101257.09;;;22.85;53.46
61026;BME280;46911;32.650;-16.902;2023-04-20T09:59:54;101247.88;;;23.11;53.49
61026;BME280;46911;32.650;-16.902;2023-04-20T10:01:56;101250.94;;;23.24;52.46
61026;BME280;46911;32.650;-16.902;2023-04-20T10:03:59;101243.66;;;23.56;51.43
61026;BME280;46911;32.650;-16.902;2023-04-20T10:06:05;101245.88;;;24.38;49.09
61026;BME280;46911;32.650;-16.902;2023-04-20T10:08:07;101254.63;;;24.95;46.82
61026;BME280;46911;32.650;-16.902;2023-04-20T10:10:12;101251.66;;;25.50;45.71
61026;BME280;46911;32.650;-16.902;2023-04-20T10:12:16;101231.09;;;25.90;43.90
61026;BME280;46911;32.650;-16.902;2023-04-20T10:14:23;101240.84;;;26.36;43.15
61026;BME280;46911;32.650;-16.902;2023-04-20T10:16:25;101253.03;;;25.61;45.23
61026;BME280;46911;32.650;-16.902;2023-04-20T10:18:26;101239.84;;;24.28;48.47
61026;BME280;46911;32.650;-16.902;2023-04-20T10:20:29;101253.81;;;24.25;47.51
61026;BME280;46911;32.650;-16.902;2023-04-20T10:22:31;101244.25;;;23.74;47.89
61026;BME280;46911;32.650;-16.902;2023-04-20T10:24:33;101241.91;;;23.63;47.92
61026;BME280;46911;32.650;-16.902;2023-04-20T10:26:36;101247.56;;;23.14;49.32
61026;BME280;46911;32.650;-16.902;2023-04-20T10:28:41;101249.25;;;23.15;50.28
61026;BME280;46911;32.650;-16.902;2023-04-20T10:30:50;101251.66;;;23.97;47.55